Time;durP1;ratioP1;P1;durP2;ratioP2;P2;SDS_P1;SDS_P2;PMS_P1;PMS_P2;Temp;Humidity;BMP_temperature;BMP_pressure;BME280_temperature;BME280_humidity;BME280_pressure;Samples;Min_cycle;Max_cycle;Signal;HPM_P1;HPM_P2
2023/08/06 00:00:33;;;;;;;2.83;2.50;;;;;;;27.48;45.53;94004.25;6119639;28;110990;-67
2023/08/06 00:03:36;;;;;;;2.80;2.40;;;;;;;27.49;45.02;93999.63;6126670;28;109877;-72
2023/08/06 00:06:40;;;;;;;3.13;2.60;;;;;;;27.48;44.85;94008.84;6123360;28;109423;-71
2023/08/06 00:09:43;;;;;;;3.60;2.42;;;;;;;27.49;44.95;93988.88;6121828;28;109187;-73
2023/08/06 00:12:48;;;;;;;3.10;2.80;;;;;;;27.46;45.24;94007.28;6122801;28;109632;-70
2023/08/06 00:15:51;;;;;;;4.30;3.90;;;;;;;27.52;45.14;94004.28;6113407;28;109063;-71
2023/08/06 00:18:54;;;;;;;5.60;3.67;;;;;;;27.54;45.47;93983.19;6107336;28;109280;-71
2023/08/06 00:21:58;;;;;;;4.70;3.83;;;;;;;27.55;45.45;93992.78;6109289;28;109346;-72
2023/08/06 00:25:01;;;;;;;4.47;3.90;;;;;;;27.54;45.22;93986.63;6107163;28;109247;-72
2023/08/06 00:28:06;;;;;;;4.30;3.90;;;;;;;27.55;45.32;93987.41;6107254;28;109235;-71
2023/08/06 00:31:09;;;;;;;4.40;4.00;;;;;;;27.55;45.88;93979.34;6114726;28;110085;-73
2023/08/06 00:34:12;;;;;;;4.03;3.63;;;;;;;27.56;45.92;93972.88;6105592;28;109307;-68
2023/08/06 00:37:16;;;;;;;5.22;3.58;;;;;;;27.55;45.60;93961.31;6101453;28;108961;-71
2023/08/06 00:40:22;;;;;;;5.13;3.65;;;;;;;27.56;45.93;93967.50;6112287;28;109627;-73
2023/08/06 00:43:27;;;;;;;3.60;3.30;;;;;;;27.58;46.19;93971.34;6119452;28;109336;-72
2023/08/06 00:46:30;;;;;;;4.00;3.60;;;;;;;27.59;45.75;93956.00;6109657;28;109093;-70
2023/08/06 00:49:34;;;;;;;4.65;3.50;;;;;;;27.58;46.23;93960.59;6107237;28;109153;-73
2023/08/06 00:52:38;;;;;;;3.40;3.10;;;;;;;27.59;46.25;93953.31;6110030;28;109390;-65
2023/08/06 00:55:42;;;;;;;4.03;3.35;;;;;;;27.60;46.05;93947.56;6093081;28;111277;-64
2023/08/06 00:58:47;;;;;;;3.85;3.10;;;;;;;27.59;46.08;93939.88;6096691;28;109245;-64
2023/08/06 01:01:51;;;;;;;4.22;3.15;;;;;;;27.59;45.79;93937.94;6116840;28;109339;-66
2023/08/06 01:04:54;;;;;;;4.00;3.35;;;;;;;27.61;46.57;93929.53;6109331;28;109222;-64
2023/08/06 01:08:16;;;;;;;3.40;3.10;;;;;;;27.61;46.06;93921.47;6114669;28;109446;-64
2023/08/06 01:11:27;;;;;;;3.60;3.20;;;;;;;27.58;46.77;93916.81;6102280;28;109541;-64
2023/08/06 01:14:43;;;;;;;4.60;3.30;;;;;;;27.60;46.18;93909.94;6121046;28;109250;-64
2023/08/06 01:17:46;;;;;;;3.57;3.00;;;;;;;27.63;47.00;93914.56;6107817;28;109464;-64
2023/08/06 01:20:51;;;;;;;3.60;3.13;;;;;;;27.63;46.56;93919.16;6115081;28;109218;-64
2023/08/06 01:23:54;;;;;;;3.73;2.97;;;;;;;27.63;46.79;93903.03;6108711;28;109772;-66
2023/08/06 01:27:04;;;;;;;4.87;3.00;;;;;;;27.62;46.75;93899.59;6107302;28;109657;-65
2023/08/06 01:30:13;;;;;;;3.08;2.78;;;;;;;27.62;47.08;93888.06;6108026;28;109240;-65
2023/08/06 01:33:22;;;;;;;3.30;3.00;;;;;;;27.60;47.16;93888.44;6093155;28;109126;-65
2023/08/06 01:36:28;;;;;;;3.47;3.00;;;;;;;27.63;47.03;93903.03;6115389;28;109925;-65
2023/08/06 01:39:32;;;;;;;3.00;2.70;;;;;;;27.61;47.12;93900.72;6116769;28;110291;-64
2023/08/06 01:42:35;;;;;;;3.83;3.00;;;;;;;27.61;47.39;93889.97;6120143;28;110106;-65
2023/08/06 01:45:38;;;;;;;2.78;2.50;;;;;;;27.61;46.56;93875.75;6109128;28;111242;-65
2023/08/06 01:48:41;;;;;;;3.15;2.80;;;;;;;27.61;47.15;93881.91;6119367;28;110642;-66
2023/08/06 01:51:46;;;;;;;3.55;2.80;;;;;;;27.61;47.07;93878.44;6125625;28;109925;-65
2023/08/06 01:54:49;;;;;;;3.10;2.80;;;;;;;27.62;47.04;93874.63;6112877;28;109091;-65
2023/08/06 01:57:52;;;;;;;3.50;2.80;;;;;;;27.61;46.47;93881.13;6117678;28;109615;-64
2023/08/06 02:00:55;;;;;;;2.78;2.50;;;;;;;27.62;47.02;93891.53;6116095;28;110354;-64
2023/08/06 02:03:58;;;;;;;3.10;2.50;;;;;;;27.61;47.28;93883.81;6113851;28;109422;-64
2023/08/06 02:07:03;;;;;;;2.90;2.50;;;;;;;27.63;46.94;93876.16;6104956;28;109483;-64
2023/08/06 02:10:07;;;;;;;2.80;2.45;;;;;;;27.61;47.34;93867.69;6119434;28;110268;-65
2023/08/06 02:13:10;;;;;;;2.72;2.53;;;;;;;27.63;46.92;93868.09;6111848;28;110066;-65
2023/08/06 02:16:13;;;;;;;2.63;2.43;;;;;;;27.63;46.65;93870.78;6111361;28;109358;-65
2023/08/06 02:19:16;;;;;;;3.20;2.60;;;;;;;27.62;47.06;93869.25;6110410;28;109212;-66
2023/08/06 02:22:22;;;;;;;2.47;2.22;;;;;;;27.60;46.64;93864.25;6118564;28;112392;-65
2023/08/06 02:25:26;;;;;;;2.87;2.57;;;;;;;27.62;46.92;93877.31;6116344;28;110393;-66
2023/08/06 02:28:29;;;;;;;3.17;2.50;;;;;;;27.63;46.70;93892.28;6108229;28;109359;-64
2023/08/06 02:31:32;;;;;;;3.43;2.40;;;;;;;27.63;46.72;93909.19;6114888;28;109336;-66
2023/08/06 02:34:35;;;;;;;2.50;2.30;;;;;;;27.63;47.38;93903.03;6100349;28;110482;-66
2023/08/06 02:37:40;;;;;;;2.70;2.50;;;;;;;27.62;47.09;93896.13;6119857;28;109467;-65
2023/08/06 02:40:46;;;;;;;2.70;2.50;;;;;;;27.62;46.61;93902.28;6099787;28;109120;-66
2023/08/06 02:43:49;;;;;;;2.90;2.60;;;;;;;27.65;46.41;93904.22;6110091;28;109456;-65
2023/08/06 02:46:52;;;;;;;4.05;3.17;;;;;;;27.64;46.71;93926.88;6109543;28;109141;-65
2023/08/06 02:49:55;;;;;;;3.70;2.90;;;;;;;27.64;46.94;93931.47;6110590;28;109128;-65
2023/08/06 02:53:00;;;;;;;3.25;2.90;;;;;;;27.63;47.00;93924.53;6100183;28;109144;-66
2023/08/06 02:56:03;;;;;;;3.30;3.00;;;;;;;27.63;46.53;93897.66;6118875;28;109169;-65
2023/08/06 02:59:06;;;;;;;3.47;3.17;;;;;;;27.61;47.10;93883.81;6109850;28;109509;-64
2023/08/06 03:02:09;;;;;;;4.40;4.00;;;;;;;27.58;46.76;93874.59;6092375;28;110270;-64
2023/08/06 03:05:13;;;;;;;4.57;4.18;;;;;;;27.59;46.98;93902.25;6112490;28;109180;-66
2023/08/06 03:08:22;;;;;;;4.40;4.00;;;;;;;27.59;46.86;93861.91;6121383;28;109152;-63
2023/08/06 03:11:25;;;;;;;4.38;4.07;;;;;;;27.56;47.06;93850.00;6131721;28;109323;-61
2023/08/06 03:14:29;;;;;;;4.95;4.25;;;;;;;27.53;47.02;93848.03;6103460;28;109361;-64
2023/08/06 03:17:32;;;;;;;4.50;4.10;;;;;;;27.55;46.99;93869.94;6119108;28;109312;-63
2023/08/06 03:20:35;;;;;;;4.20;3.90;;;;;;;27.55;47.65;93890.66;6115451;28;109365;-65
2023/08/06 03:23:40;;;;;;;5.60;4.40;;;;;;;27.54;47.35;93833.44;6122380;28;109272;-64
2023/08/06 03:26:43;;;;;;;4.70;4.30;;;;;;;27.52;47.51;93826.91;6110079;28;109781;-65
2023/08/06 03:29:46;;;;;;;4.90;4.50;;;;;;;27.55;47.46;93863.78;6124424;28;109419;-64
2023/08/06 03:32:49;;;;;;;6.17;4.40;;;;;;;27.55;47.05;93896.81;6133736;28;110171;-64
2023/08/06 03:35:53;;;;;;;5.00;4.60;;;;;;;27.52;47.28;93904.84;6130549;28;109229;-65
2023/08/06 03:38:57;;;;;;;4.70;4.30;;;;;;;27.52;47.42;93902.91;6112941;28;109912;-64
2023/08/06 03:42:00;;;;;;;5.18;4.70;;;;;;;27.52;47.62;93886.03;6102398;28;109460;-64
2023/08/06 03:45:04;;;;;;;4.82;4.43;;;;;;;27.51;47.41;93889.84;6124880;28;109958;-64
2023/08/06 03:48:08;;;;;;;4.60;4.20;;;;;;;27.48;47.22;93907.50;6099358;28;109393;-64
2023/08/06 03:51:11;;;;;;;4.70;4.20;;;;;;;27.48;47.79;93904.03;6116263;28;110107;-64
2023/08/06 03:54:15;;;;;;;4.93;4.35;;;;;;;27.48;47.93;93898.66;6112553;28;110169;-63
2023/08/06 03:57:19;;;;;;;4.37;3.97;;;;;;;27.45;48.19;93913.59;6118654;28;109384;-63
2023/08/06 04:00:22;;;;;;;4.30;3.90;;;;;;;27.46;47.98;93920.53;6099560;28;109172;-64
2023/08/06 04:03:25;;;;;;;4.32;3.80;;;;;;;27.39;48.32;93934.66;6111829;28;109559;-64
2023/08/06 04:06:28;;;;;;;4.18;3.70;;;;;;;27.35;48.40;93957.25;6119622;28;109419;-66
2023/08/06 04:09:33;;;;;;;4.88;3.60;;;;;;;27.35;48.67;93930.38;6115407;28;109138;-64
2023/08/06 04:12:39;;;;;;;4.60;3.55;;;;;;;27.37;48.14;93909.28;6098227;28;108992;-64
2023/08/06 04:15:42;;;;;;;4.68;3.38;;;;;;;27.39;49.39;93889.00;6114212;28;109136;-70
2023/08/06 04:18:45;;;;;;;4.03;3.60;;;;;;;27.40;48.68;93865.59;6108093;28;109171;-69
2023/08/06 04:21:48;;;;;;;3.95;3.60;;;;;;;27.43;48.85;93884.41;6119847;28;109151;-66
2023/08/06 04:24:53;;;;;;;5.73;3.70;;;;;;;27.42;47.85;93892.84;6103743;28;109112;-65
2023/08/06 04:27:57;;;;;;;4.90;3.60;;;;;;;27.38;48.25;93886.66;6094288;28;109147;-66
2023/08/06 04:31:00;;;;;;;4.57;4.18;;;;;;;27.28;48.82;93890.78;6117508;28;109338;-65
2023/08/06 04:34:03;;;;;;;4.40;3.80;;;;;;;27.23;49.38;93884.94;6098975;28;109628;-65
2023/08/06 04:37:07;;;;;;;4.40;3.90;;;;;;;27.25;49.26;93882.66;6109721;28;109217;-65
2023/08/06 04:40:13;;;;;;;4.13;3.38;;;;;;;27.21;49.15;93871.06;6123866;28;109534;-67
2023/08/06 04:43:16;;;;;;;3.92;3.50;;;;;;;27.19;48.76;93858.00;6112925;28;109201;-67
2023/08/06 04:46:19;;;;;;;9.10;8.40;;;;;;;27.12;48.92;93852.56;6101850;28;109294;-65
2023/08/06 04:49:22;;;;;;;5.23;4.67;;;;;;;27.15;49.46;93854.53;6108493;28;108930;-65
2023/08/06 04:52:28;;;;;;;5.17;4.40;;;;;;;27.14;48.90;93845.69;6113853;28;110219;-67
2023/08/06 04:55:32;;;;;;;5.40;4.90;;;;;;;27.18;49.30;93834.97;6116881;28;109088;-65
2023/08/06 04:58:35;;;;;;;6.30;5.70;;;;;;;27.21;48.75;93834.25;6111204;28;109295;-65
2023/08/06 05:01:42;;;;;;;6.60;6.00;;;;;;;27.20;49.21;93827.31;6121151;28;109230;-64
2023/08/06 05:04:45;;;;;;;6.53;5.93;;;;;;;27.22;49.08;93825.06;6132449;28;109076;-67
2023/08/06 05:07:50;;;;;;;7.38;6.00;;;;;;;27.22;49.16;93829.66;6101265;28;109931;-66
2023/08/06 05:10:54;;;;;;;5.72;5.22;;;;;;;27.24;49.30;93828.16;6112713;28;109560;-65
2023/08/06 05:13:58;;;;;;;9.50;8.60;;;;;;;27.25;49.62;93840.44;6119531;28;109100;-65
2023/08/06 05:17:02;;;;;;;13.25;12.10;;;;;;;27.26;49.71;93846.63;6112962;28;109113;-65
2023/08/06 05:20:06;;;;;;;9.25;8.35;;;;;;;27.24;49.76;93846.97;6105034;28;109099;-65
2023/08/06 05:23:09;;;;;;;9.65;3.80;;;;;;;26.74;51.04;93843.69;6112924;28;112152;-64
2023/08/06 05:26:15;;;;;;;6.95;4.00;;;;;;;26.39;51.32;93835.16;6112717;28;109952;-65
2023/08/06 05:29:18;;;;;;;8.75;4.00;;;;;;;26.24;51.86;93837.63;6112712;28;109221;-66
2023/08/06 05:32:22;;;;;;;7.93;4.15;;;;;;;26.43;51.40;93844.78;6101286;28;110220;-69
2023/08/06 05:35:25;;;;;;;26.63;9.55;;;;;;;26.85;51.58;93846.50;6112736;28;109263;-70
2023/08/06 05:38:28;;;;;;;9.83;6.40;;;;;;;26.99;50.30;93837.84;6112544;28;109709;-69
2023/08/06 05:41:32;;;;;;;9.40;6.33;;;;;;;27.07;50.03;93829.50;6115028;28;109868;-67
2023/08/06 05:44:36;;;;;;;9.57;6.72;;;;;;;27.15;50.31;93827.66;6121626;28;110064;-70
2023/08/06 05:47:39;;;;;;;10.27;5.97;;;;;;;27.19;50.31;93831.16;6112863;28;109163;-70
2023/08/06 05:50:42;;;;;;;9.68;5.90;;;;;;;27.24;49.90;93828.16;6112521;28;110646;-68
2023/08/06 05:53:46;;;;;;;9.25;4.45;;;;;;;27.24;49.94;93833.53;6101520;28;109513;-70
2023/08/06 05:56:51;;;;;;;10.63;5.10;;;;;;;27.33;49.81;93831.34;6112778;28;108903;-69
2023/08/06 05:59:54;;;;;;;7.40;4.83;;;;;;;27.42;49.67;93829.13;6112159;28;109441;-69
2023/08/06 06:02:57;;;;;;;6.20;4.63;;;;;;;27.47;50.46;93838.78;6107657;28;109375;-71
2023/08/06 06:06:02;;;;;;;6.83;5.50;;;;;;;27.50;49.49;93845.31;6104744;28;110376;-70
2023/08/06 06:09:05;;;;;;;7.43;5.50;;;;;;;27.55;49.43;93856.50;6101145;28;109792;-70
2023/08/06 06:12:10;;;;;;;8.20;6.30;;;;;;;27.49;49.51;93860.66;6114170;28;109775;-68
2023/08/06 06:15:13;;;;;;;6.50;5.80;;;;;;;27.35;49.08;93872.03;6112009;28;110302;-70
2023/08/06 06:18:16;;;;;;;5.50;5.10;;;;;;;27.34;49.30;93872.41;6110638;28;109330;-69
2023/08/06 06:21:19;;;;;;;6.77;5.10;;;;;;;27.41;51.06;93881.34;6114972;28;109312;-70
2023/08/06 06:24:23;;;;;;;7.18;4.40;;;;;;;27.43;50.13;93886.34;6114374;28;110345;-69
2023/08/06 06:27:27;;;;;;;5.72;4.30;;;;;;;27.50;49.88;93886.41;6118565;28;109379;-69
2023/08/06 06:30:30;;;;;;;5.03;4.20;;;;;;;27.51;48.78;93889.84;6134930;28;109317;-69
2023/08/06 06:33:33;;;;;;;5.20;3.90;;;;;;;27.55;49.29;93888.75;6135211;28;109285;-70
2023/08/06 06:36:36;;;;;;;6.35;4.28;;;;;;;27.59;49.58;93891.50;6117409;28;109312;-69
2023/08/06 06:39:40;;;;;;;5.93;3.97;;;;;;;27.64;49.55;93893.84;6106245;28;111254;-69
2023/08/06 06:42:44;;;;;;;5.43;3.97;;;;;;;27.58;48.86;93898.78;6111324;28;109296;-64
2023/08/06 06:45:47;;;;;;;5.40;3.75;;;;;;;27.55;49.22;93912.16;6126826;28;109206;-66
2023/08/06 06:48:51;;;;;;;4.80;3.40;;;;;;;27.54;49.12;93914.06;6116934;28;110088;-66
2023/08/06 06:51:54;;;;;;;4.03;3.30;;;;;;;27.40;49.71;93914.72;6102239;28;110415;-66
2023/08/06 06:54:57;;;;;;;4.95;3.45;;;;;;;27.31;49.44;93926.88;6113567;28;112908;-66
2023/08/06 06:58:02;;;;;;;5.55;4.00;;;;;;;27.33;49.59;93930.75;6124682;28;110297;-66
2023/08/06 07:01:05;;;;;;;3.63;3.10;;;;;;;27.28;48.06;93931.06;6093894;28;109298;-66
2023/08/06 07:04:08;;;;;;;3.43;3.10;;;;;;;27.25;48.08;93945.22;6099253;28;110378;-67
2023/08/06 07:07:11;;;;;;;4.18;2.90;;;;;;;27.26;47.93;93932.59;6107561;28;109709;-66
2023/08/06 07:10:14;;;;;;;4.90;2.90;;;;;;;27.32;48.22;93947.22;6114208;28;109279;-69
2023/08/06 07:13:19;;;;;;;9.75;3.13;;;;;;;27.37;47.58;93947.66;6100291;28;109302;-65
2023/08/06 07:16:22;;;;;;;5.07;3.30;;;;;;;27.38;47.04;93946.53;6108670;28;109116;-64
2023/08/06 07:19:25;;;;;;;4.20;3.73;;;;;;;27.41;46.72;93955.78;6108934;28;109249;-66
2023/08/06 07:22:28;;;;;;;4.87;3.90;;;;;;;27.42;46.75;93939.31;6126139;28;109309;-63
2023/08/06 07:25:31;;;;;;;4.30;3.90;;;;;;;27.48;46.07;93936.28;6104696;28;110665;-63
2023/08/06 07:28:36;;;;;;;4.40;3.70;;;;;;;27.55;46.29;93931.75;6109094;28;109217;-62
2023/08/06 07:31:39;;;;;;;8.40;4.30;;;;;;;27.62;46.29;93936.44;6109894;28;109139;-64
2023/08/06 07:34:42;;;;;;;12.75;3.90;;;;;;;27.77;46.21;93935.44;6105032;28;109336;-64
2023/08/06 07:37:45;;;;;;;11.98;4.00;;;;;;;27.87;46.15;93936.72;6106310;28;109752;-64
2023/08/06 07:40:48;;;;;;;11.98;4.40;;;;;;;27.79;46.61;93930.47;6124687;28;109507;-64
2023/08/06 07:43:53;;;;;;;7.80;3.83;;;;;;;27.69;46.26;93937.28;6109427;28;109429;-65
2023/08/06 07:46:56;;;;;;;5.88;3.78;;;;;;;27.62;45.73;93926.47;6099948;28;109731;-64
2023/08/06 07:49:59;;;;;;;5.28;3.58;;;;;;;27.48;44.99;93928.22;6115409;28;109259;-65
2023/08/06 07:53:03;;;;;;;28.77;5.60;;;;;;;27.32;43.90;93937.25;6109710;28;109335;-63
2023/08/06 07:56:06;;;;;;;8.45;3.92;;;;;;;27.26;44.08;93924.53;6125285;28;109267;-64
2023/08/06 07:59:10;;;;;;;3.92;3.20;;;;;;;27.20;43.68;93924.03;6112545;28;111226;-64
2023/08/06 08:02:14;;;;;;;4.20;3.30;;;;;;;27.16;43.57;93924.00;6108907;28;109172;-63
2023/08/06 08:05:17;;;;;;;12.45;4.68;;;;;;;27.31;44.77;93911.53;6109312;28;110042;-64
2023/08/06 08:08:20;;;;;;;9.20;6.07;;;;;;;27.49;44.58;93913.66;6117715;28;109321;-64
2023/08/06 08:11:23;;;;;;;9.23;7.60;;;;;;;27.49;43.33;93916.31;6114378;28;110279;-62
2023/08/06 08:14:28;;;;;;;5.47;4.97;;;;;;;27.56;43.35;93919.09;6109538;28;110510;-61
2023/08/06 08:17:31;;;;;;;6.60;4.73;;;;;;;27.63;43.62;93913.78;6111424;28;109484;-64
2023/08/06 08:20:35;;;;;;;6.73;4.10;;;;;;;27.66;43.52;93929.94;6101724;28;109262;-64
2023/08/06 08:23:39;;;;;;;6.70;5.47;;;;;;;27.64;42.92;93926.09;6108442;28;109325;-64
2023/08/06 08:26:42;;;;;;;7.27;5.70;;;;;;;27.65;43.48;93933.00;6101435;28;109534;-64
2023/08/06 08:29:47;;;;;;;7.10;5.10;;;;;;;27.56;43.99;93932.53;6102047;28;110110;-64
2023/08/06 08:32:50;;;;;;;4.20;3.80;;;;;;;27.56;44.47;93937.91;6094032;28;109246;-64
2023/08/06 08:35:53;;;;;;;4.97;3.80;;;;;;;27.56;44.08;93935.25;6126558;28;109235;-65
2023/08/06 08:38:56;;;;;;;4.20;3.80;;;;;;;27.51;43.78;93946.28;6112494;28;109143;-64
2023/08/06 08:42:01;;;;;;;3.85;3.40;;;;;;;27.54;44.14;93937.50;6107000;28;109307;-64
2023/08/06 08:45:11;;;;;;;3.67;3.30;;;;;;;27.52;43.66;93921.72;6110275;28;109640;-65
2023/08/06 08:48:15;;;;;;;7.10;4.37;;;;;;;27.52;43.57;93921.72;6110389;28;109246;-64
2023/08/06 08:51:19;;;;;;;11.93;9.80;;;;;;;27.50;43.78;93915.19;6129787;28;109851;-64
2023/08/06 08:54:25;;;;;;;7.68;6.53;;;;;;;27.49;43.29;93919.78;6107626;28;109707;-64
2023/08/06 08:57:28;;;;;;;8.38;5.32;;;;;;;27.48;43.33;93912.09;6107544;28;111054;-64
2023/08/06 09:00:33;;;;;;;5.60;4.63;;;;;;;27.61;43.11;93899.94;6110598;28;109964;-64
2023/08/06 09:03:37;;;;;;;5.70;4.20;;;;;;;27.62;42.95;93898.81;6113028;28;109645;-69
2023/08/06 09:06:43;;;;;;;5.75;4.20;;;;;;;27.61;43.08;93905.31;6101122;28;109893;-70
2023/08/06 09:09:49;;;;;;;4.70;4.00;;;;;;;27.58;43.39;93896.09;6106598;28;109281;-71
2023/08/06 09:12:54;;;;;;;4.75;4.00;;;;;;;27.56;43.40;93892.22;6117873;28;109133;-70
2023/08/06 09:15:58;;;;;;;6.28;4.80;;;;;;;27.54;43.59;93892.56;6131035;28;109089;-70
2023/08/06 09:19:08;;;;;;;7.60;4.90;;;;;;;27.52;43.22;93896.78;6103787;28;109105;-71
2023/08/06 09:22:13;;;;;;;7.97;5.50;;;;;;;27.51;43.30;93882.56;6109233;28;110385;-70
2023/08/06 09:25:24;;;;;;;6.57;5.97;;;;;;;27.55;42.92;93879.91;6108838;28;109072;-69
2023/08/06 09:28:38;;;;;;;9.40;5.07;;;;;;;27.52;43.84;93886.81;6100325;28;109866;-70
2023/08/06 09:31:43;;;;;;;8.00;4.60;;;;;;;27.68;43.34;93883.88;6118867;28;110373;-70
2023/08/06 09:34:47;;;;;;;4.50;4.10;;;;;;;27.78;43.55;93875.16;6105799;28;109437;-70
2023/08/06 09:37:50;;;;;;;4.85;4.10;;;;;;;27.81;43.66;93887.84;6107978;28;109088;-70
2023/08/06 09:40:53;;;;;;;4.65;4.15;;;;;;;27.75;43.31;93873.22;6098158;28;109786;-69
2023/08/06 09:43:56;;;;;;;6.55;4.50;;;;;;;27.77;42.84;93865.53;6117795;28;109172;-71
2023/08/06 09:47:04;;;;;;;5.03;4.20;;;;;;;27.85;43.08;93867.13;6108693;28;109294;-71
2023/08/06 09:50:15;;;;;;;4.20;3.80;;;;;;;27.83;42.53;93874.03;6104708;28;109421;-71
2023/08/06 09:53:19;;;;;;;4.97;4.07;;;;;;;27.90;42.55;93855.31;6110829;28;110166;-69
2023/08/06 09:56:26;;;;;;;6.50;4.88;;;;;;;27.85;42.75;93869.81;6122002;28;109114;-68
2023/08/06 09:59:29;;;;;;;7.10;4.90;;;;;;;27.76;42.27;93867.47;6123317;28;112680;-69
2023/08/06 10:02:35;;;;;;;8.35;5.10;;;;;;;27.84;41.78;93870.97;6115558;28;110156;-69
2023/08/06 10:05:39;;;;;;;6.47;4.00;;;;;;;27.70;40.81;93865.47;6120325;28;109157;-69
2023/08/06 10:08:42;;;;;;;5.60;3.70;;;;;;;27.66;41.35;93886.16;6117175;28;109233;-69
2023/08/06 10:11:52;;;;;;;4.22;3.10;;;;;;;27.56;41.29;93884.16;6114065;28;109071;-69
2023/08/06 10:15:00;;;;;;;4.60;3.03;;;;;;;27.53;40.93;93887.56;6108324;28;109090;-63
2023/08/06 10:18:07;;;;;;;4.45;3.35;;;;;;;27.59;40.76;93888.81;6116679;28;110770;-63
2023/08/06 10:21:10;;;;;;;3.50;2.97;;;;;;;27.54;40.84;93886.44;6120478;28;109150;-63
2023/08/06 10:24:15;;;;;;;3.50;2.70;;;;;;;27.58;40.88;93887.25;6135691;28;110463;-63
2023/08/06 10:27:23;;;;;;;3.10;2.80;;;;;;;27.54;40.40;93887.19;6108076;28;109971;-64
2023/08/06 10:30:27;;;;;;;3.25;2.90;;;;;;;27.53;40.54;93899.09;6121170;28;108715;-64
2023/08/06 10:33:44;;;;;;;3.05;2.30;;;;;;;27.50;40.66;93893.69;6117452;28;109146;-64
2023/08/06 10:36:47;;;;;;;2.90;2.50;;;;;;;27.46;40.89;93899.81;6108878;28;109444;-64
2023/08/06 10:39:51;;;;;;;3.40;2.70;;;;;;;27.46;40.65;93907.09;6113033;28;109190;-66
2023/08/06 10:42:55;;;;;;;3.00;2.70;;;;;;;27.44;40.82;93907.47;6118750;28;109314;-64
2023/08/06 10:45:59;;;;;;;3.00;2.70;;;;;;;27.42;40.59;93899.00;6113104;28;110022;-65
2023/08/06 10:49:04;;;;;;;2.75;2.55;;;;;;;27.37;40.34;93910.06;6114030;28;109049;-63
2023/08/06 10:52:07;;;;;;;2.85;2.65;;;;;;;27.32;39.69;93913.06;6114114;28;109491;-64
2023/08/06 10:55:10;;;;;;;2.90;2.60;;;;;;;27.37;40.40;93907.38;6114474;28;109264;-63
2023/08/06 10:58:16;;;;;;;3.20;2.90;;;;;;;27.37;40.18;93911.97;6112393;28;109240;-63
2023/08/06 11:01:23;;;;;;;4.20;3.80;;;;;;;27.39;41.37;93915.84;6092050;28;109161;-63
2023/08/06 11:04:32;;;;;;;4.15;3.50;;;;;;;27.34;41.59;93918.84;6113985;28;108847;-64
2023/08/06 11:07:35;;;;;;;3.30;3.00;;;;;;;27.32;41.39;93934.56;6119430;28;109204;-64
2023/08/06 11:10:38;;;;;;;3.40;3.10;;;;;;;27.38;41.78;93935.78;6106300;28;109150;-64
2023/08/06 11:13:53;;;;;;;3.90;3.50;;;;;;;27.37;41.19;93931.56;6105531;28;109349;-63
2023/08/06 11:16:56;;;;;;;3.90;3.50;;;;;;;27.33;41.70;93938.81;6108248;28;109217;-64
2023/08/06 11:20:02;;;;;;;3.60;3.30;;;;;;;27.37;41.59;93933.47;6098264;28;109143;-63
2023/08/06 11:23:05;;;;;;;3.97;3.53;;;;;;;27.35;41.16;93944.59;6092329;28;109288;-63
2023/08/06 11:26:09;;;;;;;4.07;3.67;;;;;;;27.35;41.14;93947.28;6105159;28;110309;-62
2023/08/06 11:29:12;;;;;;;4.35;3.95;;;;;;;27.34;41.28;93948.41;6105619;28;109287;-64
2023/08/06 11:32:15;;;;;;;4.22;3.83;;;;;;;27.34;41.66;93950.31;6101904;28;113374;-62
2023/08/06 11:35:21;;;;;;;4.70;4.10;;;;;;;27.24;41.48;93954.41;6088571;28;109186;-63
2023/08/06 11:38:26;;;;;;;3.50;3.20;;;;;;;27.17;39.45;93952.41;6105896;28;109163;-64
2023/08/06 11:41:30;;;;;;;3.50;3.20;;;;;;;27.12;38.80;93951.94;6114304;28;109123;-64
2023/08/06 11:44:36;;;;;;;5.00;3.70;;;;;;;27.23;39.08;93957.47;6129217;28;110155;-60
2023/08/06 11:47:40;;;;;;;4.53;3.10;;;;;;;27.44;38.97;93942.41;6094723;28;108806;-60
2023/08/06 11:50:45;;;;;;;8.00;3.33;;;;;;;27.75;38.74;93945.81;6096995;28;109302;-60
2023/08/06 11:53:50;;;;;;;4.22;3.60;;;;;;;27.87;38.29;93950.94;6102348;28;109183;-60
2023/08/06 11:56:53;;;;;;;3.30;3.00;;;;;;;27.97;38.49;93944.88;6087554;28;109099;-61
2023/08/06 11:59:56;;;;;;;3.70;3.40;;;;;;;28.06;38.64;93939.22;6098740;28;109288;-61
2023/08/06 12:02:59;;;;;;;3.60;3.30;;;;;;;28.07;39.02;93940.00;6100220;28;109229;-60
2023/08/06 12:06:04;;;;;;;3.60;3.30;;;;;;;28.07;38.94;93943.44;6106764;28;109583;-62
2023/08/06 12:09:07;;;;;;;3.30;3.00;;;;;;;28.09;39.54;93945.78;6102143;28;110128;-61
2023/08/06 12:12:10;;;;;;;3.83;3.53;;;;;;;28.10;39.03;93948.09;6133324;28;111586;-61
2023/08/06 12:15:13;;;;;;;3.80;3.50;;;;;;;28.17;39.31;93941.97;6133265;28;109271;-62
2023/08/06 12:18:17;;;;;;;3.90;3.60;;;;;;;28.09;39.26;93929.63;6085532;28;110284;-62
2023/08/06 12:21:21;;;;;;;3.60;3.30;;;;;;;28.21;39.44;93932.78;6094210;28;109061;-62
2023/08/06 12:24:24;;;;;;;4.10;3.80;;;;;;;28.23;39.30;93924.38;6115168;28;109309;-61
2023/08/06 12:27:28;;;;;;;3.70;3.40;;;;;;;28.25;39.42;93916.69;6130186;28;109241;-61
2023/08/06 12:30:31;;;;;;;4.18;3.80;;;;;;;28.22;39.97;93922.78;6085154;28;109726;-65
2023/08/06 12:33:34;;;;;;;4.10;3.70;;;;;;;28.21;39.88;93919.34;6108561;28;109097;-60
2023/08/06 12:36:39;;;;;;;4.28;3.90;;;;;;;28.23;40.26;93919.00;6109372;28;108914;-63
2023/08/06 12:39:42;;;;;;;4.32;3.92;;;;;;;28.18;40.20;93911.25;6110889;28;109041;-63
2023/08/06 12:42:45;;;;;;;4.47;4.07;;;;;;;28.30;40.38;93927.09;6118864;28;109253;-63
2023/08/06 12:45:49;;;;;;;4.40;4.10;;;;;;;28.33;40.28;93929.03;6108586;28;109670;-63
2023/08/06 12:48:52;;;;;;;4.13;3.83;;;;;;;28.30;40.57;93919.03;6110390;28;109501;-61
2023/08/06 12:51:59;;;;;;;4.30;3.90;;;;;;;28.27;41.11;93925.94;6108457;28;109253;-62
2023/08/06 12:55:02;;;;;;;4.60;4.20;;;;;;;28.23;40.87;93924.38;6098686;28;109144;-61
2023/08/06 12:58:05;;;;;;;5.40;4.95;;;;;;;27.91;40.02;93921.41;6108970;28;110394;-61
2023/08/06 13:01:08;;;;;;;6.30;5.80;;;;;;;27.53;40.13;93917.91;6108403;28;109138;-61
2023/08/06 13:04:12;;;;;;;6.70;6.00;;;;;;;27.57;40.79;93923.34;6111979;28;109314;-62
2023/08/06 13:07:26;;;;;;;6.20;5.60;;;;;;;27.77;40.69;93919.31;6101758;28;109217;-62
2023/08/06 13:10:31;;;;;;;5.45;5.05;;;;;;;27.93;40.15;93922.56;6091721;28;109151;-64
2023/08/06 13:13:34;;;;;;;5.30;4.90;;;;;;;28.01;40.69;93918.00;6097556;28;109437;-62
2023/08/06 13:16:38;;;;;;;5.43;5.03;;;;;;;28.11;40.61;93916.56;6092618;28;109532;-63
2023/08/06 13:19:41;;;;;;;5.18;4.78;;;;;;;28.14;40.41;93907.75;6102048;28;109187;-61
2023/08/06 13:22:46;;;;;;;5.33;4.90;;;;;;;28.17;40.29;93909.69;6098634;28;109101;-62
2023/08/06 13:25:49;;;;;;;6.82;6.32;;;;;;;27.78;40.40;93915.47;6095672;28;109334;-61
2023/08/06 13:28:52;;;;;;;6.00;5.50;;;;;;;27.97;40.25;93922.59;6092338;28;110846;-63
2023/08/06 13:31:56;;;;;;;6.00;5.50;;;;;;;28.10;40.26;93926.56;6105677;28;109895;-64
2023/08/06 13:34:59;;;;;;;5.75;5.32;;;;;;;28.22;40.50;93928.19;6106891;28;109402;-63
2023/08/06 13:38:03;;;;;;;6.20;5.70;;;;;;;28.32;40.36;93930.97;6102226;28;109303;-63
2023/08/06 13:41:07;;;;;;;6.20;5.60;;;;;;;28.23;40.49;93932.44;6097845;28;108872;-63
2023/08/06 13:44:10;;;;;;;6.25;5.65;;;;;;;27.91;39.44;93929.47;6128311;28;112802;-69
2023/08/06 13:47:13;;;;;;;6.68;6.18;;;;;;;27.77;40.71;93927.38;6113854;28;109210;-71
2023/08/06 13:50:17;;;;;;;6.30;5.80;;;;;;;27.82;39.75;93937.78;6101046;28;109371;-72
2023/08/06 13:53:21;;;;;;;6.60;5.90;;;;;;;27.77;39.56;93940.81;6127494;28;109104;-72
2023/08/06 13:56:24;;;;;;;6.03;5.53;;;;;;;27.72;40.74;93933.06;6112935;28;109377;-72
2023/08/06 13:59:28;;;;;;;5.90;5.40;;;;;;;27.72;39.85;93938.44;6112278;28;109407;-71
2023/08/06 14:05:51;;;;;;;6.07;5.57;;;;;;;27.82;39.84;93920.88;6882404;22;111869;-64
2023/08/06 14:08:56;;;;;;;6.00;5.50;;;;;;;27.87;39.92;93925.94;6131789;28;109052;-63
2023/08/06 14:11:59;;;;;;;5.93;5.35;;;;;;;27.86;40.09;93930.56;6126568;28;109301;-64
2023/08/06 14:15:03;;;;;;;6.15;5.65;;;;;;;27.97;39.92;93926.06;6110157;28;109141;-61
2023/08/06 14:18:06;;;;;;;6.20;5.70;;;;;;;28.07;39.69;93930.00;6122936;28;109501;-62